sensor_id;sensor_type;location;lat;lon;timestamp;noise_LAeq;noise_LA_min;noise_LA_max;noise_LA01;noise_LA95
42701;Laerm;28316;49.504;8.526;2023-05-15T00:00:10;38.52;35.66;40.33;;
42701;Laerm;28316;49.504;8.526;2023-05-15T00:02:37;38.47;35.94;40.43;;
42701;Laerm;28316;49.504;8.526;2023-05-15T00:05:06;38.49;36.20;40.80;;
42701;Laerm;28316;49.504;8.526;2023-05-15T00:07:34;38.52;35.36;40.80;;
42701;Laerm;28316;49.504;8.526;2023-05-15T00:10:00;38.57;35.94;40.43;;
42701;Laerm;28316;49.504;8.526;2023-05-15T00:12:26;38.72;36.45;40.71;;
42701;Laerm;28316;49.504;8.526;2023-05-15T00:14:52;38.75;35.94;41.19;;
42701;Laerm;28316;49.504;8.526;2023-05-15T00:17:18;38.74;36.45;40.89;;
42701;Laerm;28316;49.504;8.526;2023-05-15T00:19:44;38.80;35.66;40.80;;
42701;Laerm;28316;49.504;8.526;2023-05-15T00:22:10;38.79;35.94;40.53;;
42701;Laerm;28316;49.504;8.526;2023-05-15T00:24:36;38.80;36.20;40.62;;
42701;Laerm;28316;49.504;8.526;2023-05-15T00:27:01;38.80;35.94;40.53;;
42701;Laerm;28316;49.504;8.526;2023-05-15T00:29:27;38.87;36.20;40.89;;
42701;Laerm;28316;49.504;8.526;2023-05-15T00:31:53;38.88;36.20;40.71;;
42701;Laerm;28316;49.504;8.526;2023-05-15T00:34:20;38.87;36.69;40.80;;
42701;Laerm;28316;49.504;8.526;2023-05-15T00:36:47;38.92;36.45;40.80;;
42701;Laerm;28316;49.504;8.526;2023-05-15T00:39:12;38.86;36.45;41.14;;
42701;Laerm;28316;49.504;8.526;2023-05-15T00:41:40;38.88;36.69;40.71;;
42701;Laerm;28316;49.504;8.526;2023-05-15T00:44:06;38.91;36.69;40.89;;
42701;Laerm;28316;49.504;8.526;2023-05-15T00:46:35;38.93;36.91;40.80;;
42701;Laerm;28316;49.504;8.526;2023-05-15T00:49:03;38.95;36.91;40.80;;
42701;Laerm;28316;49.504;8.526;2023-05-15T00:51:31;38.98;36.69;40.63;;
42701;Laerm;28316;49.504;8.526;2023-05-15T00:53:58;38.89;36.91;40.80;;
42701;Laerm;28316;49.504;8.526;2023-05-15T00:56:24;38.86;36.45;40.71;;
42701;Laerm;28316;49.504;8.526;2023-05-15T00:58:50;38.82;36.45;40.71;;
42701;Laerm;28316;49.504;8.526;2023-05-15T01:01:17;38.78;36.20;40.71;;
42701;Laerm;28316;49.504;8.526;2023-05-15T01:03:43;38.70;36.20;40.71;;
42701;Laerm;28316;49.504;8.526;2023-05-15T01:06:09;38.64;36.20;40.98;;
42701;Laerm;28316;49.504;8.526;2023-05-15T01:08:56;38.60;36.20;40.63;;
42701;Laerm;28316;49.504;8.526;2023-05-15T01:11:27;38.51;35.66;40.53;;
42701;Laerm;28316;49.504;8.526;2023-05-15T01:14:03;38.42;35.94;40.53;;
42701;Laerm;28316;49.504;8.526;2023-05-15T01:16:33;38.37;35.66;40.33;;
42701;Laerm;28316;49.504;8.526;2023-05-15T01:18:59;38.35;35.94;40.53;;
42701;Laerm;28316;49.504;8.526;2023-05-15T01:27:50;38.17;35.36;40.23;;
42701;Laerm;28316;49.504;8.526;2023-05-15T01:30:28;38.15;35.36;40.33;;
42701;Laerm;28316;49.504;8.526;2023-05-15T01:33:07;38.11;35.36;40.43;;
42701;Laerm;28316;49.504;8.526;2023-05-15T01:35:44;38.08;35.04;40.13;;
42701;Laerm;28316;49.504;8.526;2023-05-15T01:38:29;38.07;35.36;40.13;;
42701;Laerm;28316;49.504;8.526;2023-05-15T01:41:09;37.99;35.04;40.33;;
42701;Laerm;28316;49.504;8.526;2023-05-15T01:43:39;37.95;35.04;40.03;;
42701;Laerm;28316;49.504;8.526;2023-05-15T01:46:07;37.92;35.31;40.33;;
42701;Laerm;28316;49.504;8.526;2023-05-15T01:48:34;37.86;35.04;40.23;;
42701;Laerm;28316;49.504;8.526;2023-05-15T01:51:03;37.82;35.01;40.23;;
42701;Laerm;28316;49.504;8.526;2023-05-15T01:53:31;37.76;35.04;40.23;;
42701;Laerm;28316;49.504;8.526;2023-05-15T01:55:58;37.69;34.69;40.13;;
42701;Laerm;28316;49.504;8.526;2023-05-15T01:58:25;37.68;34.31;53.79;;
42701;Laerm;28316;49.504;8.526;2023-05-15T02:00:52;37.58;34.31;39.81;;
42701;Laerm;28316;49.504;8.526;2023-05-15T02:03:18;37.55;34.31;43.90;;
42701;Laerm;28316;49.504;8.526;2023-05-15T02:05:46;37.51;33.90;40.13;;
42701;Laerm;28316;49.504;8.526;2023-05-15T02:08:13;37.50;33.44;40.13;;
42701;Laerm;28316;49.504;8.526;2023-05-15T02:10:40;37.54;34.69;40.23;;
42701;Laerm;28316;49.504;8.526;2023-05-15T02:13:07;37.63;34.31;40.13;;
42701;Laerm;28316;49.504;8.526;2023-05-15T02:15:33;37.76;34.69;40.03;;
42701;Laerm;28316;49.504;8.526;2023-05-15T02:18:00;37.83;34.69;40.23;;
42701;Laerm;28316;49.504;8.526;2023-05-15T02:20:26;37.82;35.04;40.13;;
42701;Laerm;28316;49.504;8.526;2023-05-15T02:22:52;37.82;34.69;40.03;;
42701;Laerm;28316;49.504;8.526;2023-05-15T02:25:19;37.82;34.69;40.23;;
42701;Laerm;28316;49.504;8.526;2023-05-15T02:27:56;37.80;35.04;40.23;;
42701;Laerm;28316;49.504;8.526;2023-05-15T02:35:50;37.84;35.36;40.13;;
42701;Laerm;28316;49.504;8.526;2023-05-15T02:38:46;37.82;35.04;40.23;;
42701;Laerm;28316;49.504;8.526;2023-05-15T02:41:12;37.83;35.04;40.13;;
42701;Laerm;28316;49.504;8.526;2023-05-15T02:43:39;37.79;34.31;40.03;;
42701;Laerm;28316;49.504;8.526;2023-05-15T02:46:07;37.79;34.31;40.13;;
42701;Laerm;28316;49.504;8.526;2023-05-15T02:48:40;37.78;35.04;40.33;;
42701;Laerm;28316;49.504;8.526;2023-05-15T02:51:06;37.79;34.31;40.13;;
42701;Laerm;28316;49.504;8.526;2023-05-15T02:53:37;37.77;35.04;40.03;;
42701;Laerm;28316;49.504;8.526;2023-05-15T02:56:03;37.76;34.69;39.92;;
42701;Laerm;28316;49.504;8.526;2023-05-15T02:58:29;37.78;34.69;40.03;;
42701;Laerm;28316;49.504;8.526;2023-05-15T03:00:55;37.77;34.69;39.92;;
42701;Laerm;28316;49.504;8.526;2023-05-15T03:03:21;37.79;34.31;40.03;;
42701;Laerm;28316;49.504;8.526;2023-05-15T03:05:46;37.78;34.31;40.33;;
42701;Laerm;28316;49.504;8.526;2023-05-15T03:08:13;37.76;34.69;40.23;;
42701;Laerm;28316;49.504;8.526;2023-05-15T03:10:39;37.71;34.69;40.23;;
42701;Laerm;28316;49.504;8.526;2023-05-15T03:13:05;37.67;34.31;40.03;;
42701;Laerm;28316;49.504;8.526;2023-05-15T03:15:30;37.64;33.44;40.13;;
42701;Laerm;28316;49.504;8.526;2023-05-15T03:17:56;37.60;34.31;40.13;;
42701;Laerm;28316;49.504;8.526;2023-05-15T03:20:22;37.60;34.31;40.03;;
42701;Laerm;28316;49.504;8.526;2023-05-15T03:22:48;37.56;34.31;40.03;;
42701;Laerm;28316;49.504;8.526;2023-05-15T03:25:14;37.55;34.31;39.92;;
42701;Laerm;28316;49.504;8.526;2023-05-15T03:27:40;37.53;34.31;40.03;;
42701;Laerm;28316;49.504;8.526;2023-05-15T03:30:06;37.49;34.69;39.92;;
42701;Laerm;28316;49.504;8.526;2023-05-15T03:32:32;37.45;34.31;39.70;;
42701;Laerm;28316;49.504;8.526;2023-05-15T03:34:58;37.42;34.31;39.58;;
42701;Laerm;28316;49.504;8.526;2023-05-15T03:37:23;37.44;34.69;39.70;;
42701;Laerm;28316;49.504;8.526;2023-05-15T03:39:49;37.43;33.90;39.58;;
42701;Laerm;28316;49.504;8.526;2023-05-15T03:42:15;37.45;34.34;40.33;;
42701;Laerm;28316;49.504;8.526;2023-05-15T03:44:46;37.39;34.31;40.03;;
42701;Laerm;28316;49.504;8.526;2023-05-15T03:47:12;37.34;33.90;39.81;;
42701;Laerm;28316;49.504;8.526;2023-05-15T03:49:38;37.35;33.90;40.03;;
42701;Laerm;28316;49.504;8.526;2023-05-15T03:52:04;37.36;34.31;39.70;;
42701;Laerm;28316;49.504;8.526;2023-05-15T03:54:30;37.37;34.31;40.03;;
42701;Laerm;28316;49.504;8.526;2023-05-15T03:56:56;37.35;33.90;39.81;;
42701;Laerm;28316;49.504;8.526;2023-05-15T03:59:22;37.31;33.90;40.03;;
42701;Laerm;28316;49.504;8.526;2023-05-15T04:01:47;37.25;32.35;39.81;;
42701;Laerm;28316;49.504;8.526;2023-05-15T04:04:13;37.25;32.93;39.78;;
42701;Laerm;28316;49.504;8.526;2023-05-15T04:06:39;37.24;32.93;39.92;;
42701;Laerm;28316;49.504;8.526;2023-05-15T04:09:04;37.20;33.90;39.46;;
42701;Laerm;28316;49.504;8.526;2023-05-15T04:11:30;37.16;33.44;39.92;;
42701;Laerm;28316;49.504;8.526;2023-05-15T04:13:56;37.16;32.35;39.92;;
42701;Laerm;28316;49.504;8.526;2023-05-15T04:16:22;37.08;33.90;39.81;;
42701;Laerm;28316;49.504;8.526;2023-05-15T04:18:47;37.09;33.44;39.70;;
42701;Laerm;28316;49.504;8.526;2023-05-15T04:21:13;37.07;33.44;39.57;;
42701;Laerm;28316;49.504;8.526;2023-05-15T04:23:39;37.08;32.93;39.92;;
42701;Laerm;28316;49.504;8.526;2023-05-15T04:26:06;37.12;33.44;39.70;;
42701;Laerm;28316;49.504;8.526;2023-05-15T04:28:33;37.11;32.35;40.33;;
42701;Laerm;28316;49.504;8.526;2023-05-15T04:30:58;37.13;32.93;39.46;;
42701;Laerm;28316;49.504;8.526;2023-05-15T04:33:24;37.10;33.44;39.58;;
42701;Laerm;28316;49.504;8.526;2023-05-15T04:35:50;37.06;32.35;39.68;;
42701;Laerm;28316;49.504;8.526;2023-05-15T04:38:16;37.05;33.44;39.70;;
42701;Laerm;28316;49.504;8.526;2023-05-15T04:40:44;37.04;32.93;39.70;;
42701;Laerm;28316;49.504;8.526;2023-05-15T04:43:10;37.05;32.93;39.58;;
42701;Laerm;28316;49.504;8.526;2023-05-15T04:45:35;37.19;33.90;39.70;;
42701;Laerm;28316;49.504;8.526;2023-05-15T04:48:02;37.31;33.90;40.03;;
42701;Laerm;28316;49.504;8.526;2023-05-15T04:50:28;37.33;33.90;39.70;;
42701;Laerm;28316;49.504;8.526;2023-05-15T04:52:54;37.37;33.44;39.92;;
42701;Laerm;28316;49.504;8.526;2023-05-15T04:55:19;37.44;34.69;39.92;;
42701;Laerm;28316;49.504;8.526;2023-05-15T04:57:46;37.47;33.90;39.92;;
42701;Laerm;28316;49.504;8.526;2023-05-15T05:00:13;37.47;33.90;40.33;;
42701;Laerm;28316;49.504;8.526;2023-05-15T05:02:39;37.45;33.90;40.03;;
42701;Laerm;28316;49.504;8.526;2023-05-15T05:05:07;37.46;34.31;40.03;;
42701;Laerm;28316;49.504;8.526;2023-05-15T05:07:33;37.49;33.90;40.03;;
42701;Laerm;28316;49.504;8.526;2023-05-15T05:10:01;37.50;34.31;39.92;;
42701;Laerm;28316;49.504;8.526;2023-05-15T05:12:27;37.53;34.31;40.13;;
42701;Laerm;28316;49.504;8.526;2023-05-15T05:14:53;37.59;34.31;40.03;;
42701;Laerm;28316;49.504;8.526;2023-05-15T05:17:19;37.64;34.31;40.13;;
42701;Laerm;28316;49.504;8.526;2023-05-15T05:19:45;37.66;34.31;40.43;;
42701;Laerm;28316;49.504;8.526;2023-05-15T05:22:11;37.64;34.69;39.81;;
42701;Laerm;28316;49.504;8.526;2023-05-15T05:24:37;37.66;34.69;40.13;;
42701;Laerm;28316;49.504;8.526;2023-05-15T05:27:03;37.63;34.31;40.13;;
42701;Laerm;28316;49.504;8.526;2023-05-15T05:29:30;37.72;34.31;40.03;;
42701;Laerm;28316;49.504;8.526;2023-05-15T05:31:56;37.78;34.31;40.03;;
42701;Laerm;28316;49.504;8.526;2023-05-15T05:34:22;37.87;35.04;40.03;;
42701;Laerm;28316;49.504;8.526;2023-05-15T05:36:48;37.94;35.04;40.13;;
42701;Laerm;28316;49.504;8.526;2023-05-15T05:39:15;37.97;34.69;40.43;;
42701;Laerm;28316;49.504;8.526;2023-05-15T05:41:44;38.00;33.97;40.89;;
42701;Laerm;28316;49.504;8.526;2023-05-15T05:44:09;38.01;34.69;40.33;;
42701;Laerm;28316;49.504;8.526;2023-05-15T05:46:35;38.04;35.36;40.23;;
42701;Laerm;28316;49.504;8.526;2023-05-15T05:49:01;38.07;35.36;40.43;;
42701;Laerm;28316;49.504;8.526;2023-05-15T05:51:27;38.17;35.04;40.18;;
42701;Laerm;28316;49.504;8.526;2023-05-15T05:53:53;38.18;35.04;40.43;;
42701;Laerm;28316;49.504;8.526;2023-05-15T05:56:19;38.24;35.36;40.71;;
42701;Laerm;28316;49.504;8.526;2023-05-15T05:58:46;38.41;35.94;40.43;;
42701;Laerm;28316;49.504;8.526;2023-05-15T06:01:12;38.44;35.94;40.33;;
42701;Laerm;28316;49.504;8.526;2023-05-15T06:03:38;38.65;36.20;40.43;;
42701;Laerm;28316;49.504;8.526;2023-05-15T06:06:04;38.83;36.69;43.77;;
42701;Laerm;28316;49.504;8.526;2023-05-15T06:08:30;38.99;36.20;53.30;;
42701;Laerm;28316;49.504;8.526;2023-05-15T06:10:56;39.08;36.45;40.80;;
42701;Laerm;28316;49.504;8.526;2023-05-15T06:13:22;39.25;37.12;41.22;;
42701;Laerm;28316;49.504;8.526;2023-05-15T06:15:47;39.47;37.52;41.22;;
42701;Laerm;28316;49.504;8.526;2023-05-15T06:18:13;39.58;37.52;41.14;;
42701;Laerm;28316;49.504;8.526;2023-05-15T06:20:39;39.67;37.88;41.22;;
42701;Laerm;28316;49.504;8.526;2023-05-15T06:23:07;39.81;38.05;41.46;;
42701;Laerm;28316;49.504;8.526;2023-05-15T06:25:33;40.06;37.70;41.68;;
42701;Laerm;28316;49.504;8.526;2023-05-15T06:27:59;40.21;38.67;41.55;;
42701;Laerm;28316;49.504;8.526;2023-05-15T06:30:25;40.43;39.08;41.68;;
42701;Laerm;28316;49.504;8.526;2023-05-15T06:32:52;40.68;39.08;41.96;;
42701;Laerm;28316;49.504;8.526;2023-05-15T06:35:18;40.86;39.21;42.22;;
42701;Laerm;28316;49.504;8.526;2023-05-15T06:37:43;40.85;39.46;42.41;;
42701;Laerm;28316;49.504;8.526;2023-05-15T06:40:14;41.02;39.46;42.22;;
42701;Laerm;28316;49.504;8.526;2023-05-15T06:42:40;41.21;39.70;42.59;;
42701;Laerm;28316;49.504;8.526;2023-05-15T06:45:07;41.36;39.70;42.53;;
42701;Laerm;28316;49.504;8.526;2023-05-15T06:47:33;41.48;40.23;42.71;;
42701;Laerm;28316;49.504;8.526;2023-05-15T06:49:59;41.55;40.33;42.71;;
42701;Laerm;28316;49.504;8.526;2023-05-15T06:52:24;41.56;40.18;43.14;;
42701;Laerm;28316;49.504;8.526;2023-05-15T06:54:50;41.66;40.33;48.91;;
42701;Laerm;28316;49.504;8.526;2023-05-15T06:57:17;41.77;40.43;53.08;;
42701;Laerm;28316;49.504;8.526;2023-05-15T06:59:43;41.73;40.43;42.88;;
42701;Laerm;28316;49.504;8.526;2023-05-15T07:02:09;41.80;40.53;42.93;;
42701;Laerm;28316;49.504;8.526;2023-05-15T07:04:35;41.81;40.23;43.04;;
42701;Laerm;28316;49.504;8.526;2023-05-15T07:07:01;41.82;40.71;43.09;;
42701;Laerm;28316;49.504;8.526;2023-05-15T07:09:27;41.89;40.43;43.09;;
42701;Laerm;28316;49.504;8.526;2023-05-15T07:11:52;41.89;40.62;42.93;;
42701;Laerm;28316;49.504;8.526;2023-05-15T07:14:18;41.95;40.53;43.09;;
42701;Laerm;28316;49.504;8.526;2023-05-15T07:16:44;41.95;40.80;43.04;;
42701;Laerm;28316;49.504;8.526;2023-05-15T07:19:11;41.96;40.71;43.14;;
42701;Laerm;28316;49.504;8.526;2023-05-15T07:21:38;41.98;40.89;43.04;;
42701;Laerm;28316;49.504;8.526;2023-05-15T07:24:04;42.06;40.71;43.19;;
42701;Laerm;28316;49.504;8.526;2023-05-15T07:26:31;42.09;40.63;43.34;;
42701;Laerm;28316;49.504;8.526;2023-05-15T07:28:57;42.09;40.80;43.14;;
42701;Laerm;28316;49.504;8.526;2023-05-15T07:31:23;42.08;40.71;43.09;;
42701;Laerm;28316;49.504;8.526;2023-05-15T07:33:49;42.09;40.80;43.14;;
42701;Laerm;28316;49.504;8.526;2023-05-15T07:36:15;42.09;40.62;43.39;;
42701;Laerm;28316;49.504;8.526;2023-05-15T07:38:41;42.09;40.71;43.39;;
42701;Laerm;28316;49.504;8.526;2023-05-15T07:41:06;42.10;40.89;43.14;;
42701;Laerm;28316;49.504;8.526;2023-05-15T07:43:33;42.08;40.89;43.19;;
42701;Laerm;28316;49.504;8.526;2023-05-15T07:45:59;42.09;40.89;43.09;;
42701;Laerm;28316;49.504;8.526;2023-05-15T07:48:24;42.10;40.80;43.29;;
42701;Laerm;28316;49.504;8.526;2023-05-15T07:50:50;42.08;40.71;43.14;;
42701;Laerm;28316;49.504;8.526;2023-05-15T07:53:16;42.08;40.71;43.34;;
42701;Laerm;28316;49.504;8.526;2023-05-15T07:55:43;42.05;40.71;43.19;;
42701;Laerm;28316;49.504;8.526;2023-05-15T07:58:09;42.06;40.53;43.19;;
42701;Laerm;28316;49.504;8.526;2023-05-15T08:00:35;42.03;40.33;43.19;;
42701;Laerm;28316;49.504;8.526;2023-05-15T08:03:01;42.00;40.71;43.19;;
42701;Laerm;28316;49.504;8.526;2023-05-15T08:05:27;41.91;40.53;43.19;;
42701;Laerm;28316;49.504;8.526;2023-05-15T08:07:57;41.88;40.23;43.04;;
42701;Laerm;28316;49.504;8.526;2023-05-15T08:10:23;41.91;40.53;43.04;;
42701;Laerm;28316;49.504;8.526;2023-05-15T08:12:48;41.97;40.43;43.24;;
42701;Laerm;28316;49.504;8.526;2023-05-15T08:15:15;41.99;40.79;43.14;;
42701;Laerm;28316;49.504;8.526;2023-05-15T08:17:41;42.01;40.71;43.09;;
42701;Laerm;28316;49.504;8.526;2023-05-15T08:20:07;42.04;40.71;43.19;;
42701;Laerm;28316;49.504;8.526;2023-05-15T08:22:33;42.04;40.53;43.19;;
42701;Laerm;28316;49.504;8.526;2023-05-15T08:24:59;42.05;40.43;43.29;;
42701;Laerm;28316;49.504;8.526;2023-05-15T08:27:26;42.02;40.62;43.19;;
42701;Laerm;28316;49.504;8.526;2023-05-15T08:29:51;41.99;40.63;43.29;;
42701;Laerm;28316;49.504;8.526;2023-05-15T08:32:19;41.97;40.23;43.24;;
42701;Laerm;28316;49.504;8.526;2023-05-15T08:34:45;41.94;40.23;43.24;;
42701;Laerm;28316;49.504;8.526;2023-05-15T08:37:10;41.95;40.53;43.29;;
42701;Laerm;28316;49.504;8.526;2023-05-15T08:39:36;41.81;40.23;42.98;;
42701;Laerm;28316;49.504;8.526;2023-05-15T08:42:13;41.81;40.23;43.24;;
42701;Laerm;28316;49.504;8.526;2023-05-15T08:44:40;41.80;40.23;43.04;;
42701;Laerm;28316;49.504;8.526;2023-05-15T08:47:06;41.75;40.23;43.09;;
42701;Laerm;28316;49.504;8.526;2023-05-15T08:50:19;41.79;40.13;43.29;;
42701;Laerm;28316;49.504;8.526;2023-05-15T08:52:30;41.81;40.23;42.98;;
42701;Laerm;28316;49.504;8.526;2023-05-15T08:55:01;41.82;40.33;43.09;;
42701;Laerm;28316;49.504;8.526;2023-05-15T08:57:27;41.82;40.23;43.19;;
42701;Laerm;28316;49.504;8.526;2023-05-15T08:59:55;41.85;40.43;43.14;;
42701;Laerm;28316;49.504;8.526;2023-05-15T09:02:21;41.89;40.13;43.09;;
42701;Laerm;28316;49.504;8.526;2023-05-15T09:04:47;41.85;40.53;43.04;;
42701;Laerm;28316;49.504;8.526;2023-05-15T09:07:14;41.90;40.62;43.19;;
42701;Laerm;28316;49.504;8.526;2023-05-15T09:09:42;41.89;40.43;43.14;;
42701;Laerm;28316;49.504;8.526;2023-05-15T09:12:10;41.85;40.33;43.04;;
42701;Laerm;28316;49.504;8.526;2023-05-15T09:14:38;41.82;40.13;43.04;;
42701;Laerm;28316;49.504;8.526;2023-05-15T09:17:04;41.86;40.43;43.09;;
42701;Laerm;28316;49.504;8.526;2023-05-15T09:19:33;41.88;40.33;43.14;;
42701;Laerm;28316;49.504;8.526;2023-05-15T09:22:19;41.82;40.33;43.04;;
42701;Laerm;28316;49.504;8.526;2023-05-15T09:24:51;41.73;40.03;42.93;;
42701;Laerm;28316;49.504;8.526;2023-05-15T09:27:23;41.74;40.03;42.93;;
42701;Laerm;28316;49.504;8.526;2023-05-15T09:29:49;41.69;40.03;42.98;;
42701;Laerm;28316;49.504;8.526;2023-05-15T09:32:19;41.67;40.13;42.82;;
42701;Laerm;28316;49.504;8.526;2023-05-15T09:34:45;41.68;40.03;42.88;;
42701;Laerm;28316;49.504;8.526;2023-05-15T09:37:32;41.67;40.03;43.09;;
42701;Laerm;28316;49.504;8.526;2023-05-15T09:40:09;41.61;39.70;42.93;;
42701;Laerm;28316;49.504;8.526;2023-05-15T09:42:35;41.40;39.81;42.88;;
42701;Laerm;28316;49.504;8.526;2023-05-15T09:45:02;41.23;38.81;43.68;;
42701;Laerm;28316;49.504;8.526;2023-05-15T09:47:27;41.24;38.81;42.71;;
42701;Laerm;28316;49.504;8.526;2023-05-15T09:49:53;41.23;39.46;42.71;;
42701;Laerm;28316;49.504;8.526;2023-05-15T09:52:19;41.24;38.81;42.59;;
42701;Laerm;28316;49.504;8.526;2023-05-15T09:54:46;41.22;38.81;42.71;;
42701;Laerm;28316;49.504;8.526;2023-05-15T09:57:13;41.21;39.21;42.71;;
42701;Laerm;28316;49.504;8.526;2023-05-15T09:59:47;41.25;39.34;42.65;;
42701;Laerm;28316;49.504;8.526;2023-05-15T10:02:28;41.21;39.08;42.59;;
42701;Laerm;28316;49.504;8.526;2023-05-15T10:04:57;41.20;39.46;42.88;;
42701;Laerm;28316;49.504;8.526;2023-05-15T10:07:31;41.18;39.34;42.65;;
42701;Laerm;28316;49.504;8.526;2023-05-15T10:09:58;41.14;39.08;42.71;;
42701;Laerm;28316;49.504;8.526;2023-05-15T10:12:24;41.04;39.21;42.47;;
42701;Laerm;28316;49.504;8.526;2023-05-15T10:14:55;40.86;38.67;42.47;;
42701;Laerm;28316;49.504;8.526;2023-05-15T10:17:21;40.70;38.05;42.41;;
42701;Laerm;28316;49.504;8.526;2023-05-15T10:19:50;40.64;38.52;42.59;;
42701;Laerm;28316;49.504;8.526;2023-05-15T10:22:22;45.29;37.52;79.80;;
42701;Laerm;28316;49.504;8.526;2023-05-15T10:25:07;40.61;38.05;42.98;;
42701;Laerm;28316;49.504;8.526;2023-05-15T10:27:35;40.53;38.21;42.22;;
42701;Laerm;28316;49.504;8.526;2023-05-15T10:30:03;40.43;37.88;42.98;;
42701;Laerm;28316;49.504;8.526;2023-05-15T10:32:30;40.31;37.70;42.41;;
42701;Laerm;28316;49.504;8.526;2023-05-15T10:34:57;40.33;37.52;43.77;;
42701;Laerm;28316;49.504;8.526;2023-05-15T10:37:23;40.27;37.88;42.09;;
42701;Laerm;28316;49.504;8.526;2023-05-15T10:39:52;40.27;37.70;42.35;;
42701;Laerm;28316;49.504;8.526;2023-05-15T10:42:20;40.21;37.12;41.89;;
42701;Laerm;28316;49.504;8.526;2023-05-15T10:44:48;40.15;37.70;42.41;;
42701;Laerm;28316;49.504;8.526;2023-05-15T10:47:15;40.04;37.32;41.89;;
42701;Laerm;28316;49.504;8.526;2023-05-15T10:49:40;40.03;37.32;42.09;;
42701;Laerm;28316;49.504;8.526;2023-05-15T10:52:08;39.98;37.12;43.04;;
42701;Laerm;28316;49.504;8.526;2023-05-15T10:54:34;40.09;37.32;48.95;;
42701;Laerm;28316;49.504;8.526;2023-05-15T10:57:00;40.00;36.69;42.59;;
42701;Laerm;28316;49.504;8.526;2023-05-15T10:59:33;39.95;37.32;41.82;;
42701;Laerm;28316;49.504;8.526;2023-05-15T11:02:37;39.99;36.45;44.69;;
42701;Laerm;28316;49.504;8.526;2023-05-15T11:05:03;39.81;36.91;42.59;;
42701;Laerm;28316;49.504;8.526;2023-05-15T11:07:29;39.75;36.69;42.03;;
42701;Laerm;28316;49.504;8.526;2023-05-15T11:09:55;39.89;36.20;46.64;;
42701;Laerm;28316;49.504;8.526;2023-05-15T11:12:22;39.76;36.69;44.31;;
42701;Laerm;28316;49.504;8.526;2023-05-15T11:17:24;39.74;36.91;42.88;;
42701;Laerm;28316;49.504;8.526;2023-05-15T11:22:36;39.67;36.91;41.61;;
42701;Laerm;28316;49.504;8.526;2023-05-15T11:25:10;39.73;36.45;41.68;;
42701;Laerm;28316;49.504;8.526;2023-05-15T11:27:44;39.81;36.69;41.82;;
42701;Laerm;28316;49.504;8.526;2023-05-15T11:30:21;39.85;37.12;41.82;;
42701;Laerm;28316;49.504;8.526;2023-05-15T11:32:54;39.82;36.69;41.88;;
42701;Laerm;28316;49.504;8.526;2023-05-15T11:35:33;39.77;36.91;43.72;;
42701;Laerm;28316;49.504;8.526;2023-05-15T11:38:17;39.68;36.69;41.96;;
42701;Laerm;28316;49.504;8.526;2023-05-15T11:43:22;39.77;35.66;42.65;;
42701;Laerm;28316;49.504;8.526;2023-05-15T11:46:00;39.69;36.20;44.62;;
42701;Laerm;28316;49.504;8.526;2023-05-15T11:48:32;39.55;35.66;46.33;;
42701;Laerm;28316;49.504;8.526;2023-05-15T11:51:02;39.47;36.69;42.71;;
42701;Laerm;28316;49.504;8.526;2023-05-15T11:53:29;39.52;36.45;42.64;;
42701;Laerm;28316;49.504;8.526;2023-05-15T11:55:56;39.50;36.45;41.68;;
42701;Laerm;28316;49.504;8.526;2023-05-15T11:58:23;40.42;36.45;50.18;;
42701;Laerm;28316;49.504;8.526;2023-05-15T12:00:51;39.68;36.20;48.08;;
42701;Laerm;28316;49.504;8.526;2023-05-15T12:03:32;39.66;36.91;43.77;;
42701;Laerm;28316;49.504;8.526;2023-05-15T12:05:58;39.68;36.20;45.99;;
42701;Laerm;28316;49.504;8.526;2023-05-15T12:08:35;39.91;35.94;47.55;;
42701;Laerm;28316;49.504;8.526;2023-05-15T12:11:06;39.68;36.20;43.99;;
42701;Laerm;28316;49.504;8.526;2023-05-15T12:13:33;39.79;35.66;46.48;;
42701;Laerm;28316;49.504;8.526;2023-05-15T12:16:03;39.57;36.45;43.24;;
42701;Laerm;28316;49.504;8.526;2023-05-15T12:18:33;39.61;36.45;43.81;;
42701;Laerm;28316;49.504;8.526;2023-05-15T12:20:58;39.90;36.69;46.10;;
42701;Laerm;28316;49.504;8.526;2023-05-15T12:23:26;39.65;35.86;44.19;;
42701;Laerm;28316;49.504;8.526;2023-05-15T12:25:57;39.54;36.20;49.87;;
42701;Laerm;28316;49.504;8.526;2023-05-15T12:28:25;39.47;36.20;44.23;;
42701;Laerm;28316;49.504;8.526;2023-05-15T12:30:51;39.29;36.45;44.15;;
42701;Laerm;28316;49.504;8.526;2023-05-15T12:33:18;39.27;35.36;44.19;;
42701;Laerm;28316;49.504;8.526;2023-05-15T12:35:52;39.73;35.94;49.87;;
42701;Laerm;28316;49.504;8.526;2023-05-15T12:38:20;39.41;36.45;42.53;;
42701;Laerm;28316;49.504;8.526;2023-05-15T12:40:46;39.24;36.20;41.46;;
42701;Laerm;28316;49.504;8.526;2023-05-15T12:43:17;39.62;35.94;49.25;;
42701;Laerm;28316;49.504;8.526;2023-05-15T12:45:43;39.57;36.20;44.51;;
42701;Laerm;28316;49.504;8.526;2023-05-15T12:48:18;39.51;36.45;44.27;;
42701;Laerm;28316;49.504;8.526;2023-05-15T12:50:44;39.46;36.20;42.03;;
42701;Laerm;28316;49.504;8.526;2023-05-15T12:53:13;39.37;36.45;42.22;;
42701;Laerm;28316;49.504;8.526;2023-05-15T12:55:45;39.39;35.36;43.04;;
42701;Laerm;28316;49.504;8.526;2023-05-15T12:58:13;39.35;36.20;42.13;;
42701;Laerm;28316;49.504;8.526;2023-05-15T13:00:41;39.39;36.20;41.38;;
42701;Laerm;28316;49.504;8.526;2023-05-15T13:03:09;39.51;36.45;42.16;;
42701;Laerm;28316;49.504;8.526;2023-05-15T13:05:36;39.89;36.69;42.93;;
42701;Laerm;28316;49.504;8.526;2023-05-15T13:08:04;40.90;38.05;43.04;;
42701;Laerm;28316;49.504;8.526;2023-05-15T13:10:35;40.80;37.87;43.99;;
42701;Laerm;28316;49.504;8.526;2023-05-15T13:13:01;41.37;38.21;47.04;;
42701;Laerm;28316;49.504;8.526;2023-05-15T13:15:32;41.95;40.43;43.04;;
42701;Laerm;28316;49.504;8.526;2023-05-15T13:18:11;41.95;40.62;43.19;;
42701;Laerm;28316;49.504;8.526;2023-05-15T13:20:45;41.97;40.53;43.19;;
42701;Laerm;28316;49.504;8.526;2023-05-15T13:23:17;41.83;40.33;42.93;;
42701;Laerm;28316;49.504;8.526;2023-05-15T13:25:44;41.74;40.23;43.19;;
42701;Laerm;28316;49.504;8.526;2023-05-15T13:28:11;41.38;39.46;42.98;;
42701;Laerm;28316;49.504;8.526;2023-05-15T13:30:38;41.15;39.08;42.98;;
42701;Laerm;28316;49.504;8.526;2023-05-15T13:33:08;41.03;39.08;42.53;;
42701;Laerm;28316;49.504;8.526;2023-05-15T13:35:35;40.98;38.52;42.53;;
42701;Laerm;28316;49.504;8.526;2023-05-15T13:38:01;41.04;39.21;42.71;;
42701;Laerm;28316;49.504;8.526;2023-05-15T13:40:27;40.79;38.60;42.47;;
42701;Laerm;28316;49.504;8.526;2023-05-15T13:42:53;40.61;38.52;42.29;;
42701;Laerm;28316;49.504;8.526;2023-05-15T13:45:18;40.63;38.21;42.65;;
42701;Laerm;28316;49.504;8.526;2023-05-15T13:47:44;40.48;38.37;42.35;;
42701;Laerm;28316;49.504;8.526;2023-05-15T13:50:12;40.32;37.32;42.16;;
42701;Laerm;28316;49.504;8.526;2023-05-15T13:52:40;40.20;38.02;41.96;;
42701;Laerm;28316;49.504;8.526;2023-05-15T13:55:06;40.12;37.32;41.89;;
42701;Laerm;28316;49.504;8.526;2023-05-15T13:57:35;40.12;37.32;42.16;;
42701;Laerm;28316;49.504;8.526;2023-05-15T14:00:06;39.96;37.52;41.96;;
42701;Laerm;28316;49.504;8.526;2023-05-15T14:02:35;39.99;37.17;45.04;;
42701;Laerm;28316;49.504;8.526;2023-05-15T14:05:00;39.76;36.91;41.75;;
42701;Laerm;28316;49.504;8.526;2023-05-15T14:07:26;39.66;36.91;41.75;;